sensor_id;sensor_type;location;lat;lon;timestamp;P1;durP1;ratioP1;P2;durP2;ratioP2
20036;SDS011;10179;42.640;23.312;2023-09-07T00:01:52;9.65;;;6.95;;
20036;SDS011;10179;42.640;23.312;2023-09-07T00:04:21;9.13;;;6.75;;
20036;SDS011;10179;42.640;23.312;2023-09-07T00:06:48;10.38;;;6.95;;
20036;SDS011;10179;42.640;23.312;2023-09-07T00:09:14;10.18;;;6.80;;
20036;SDS011;10179;42.640;23.312;2023-09-07T00:11:41;11.15;;;6.90;;
20036;SDS011;10179;42.640;23.312;2023-09-07T00:14:06;10.10;;;6.80;;
20036;SDS011;10179;42.640;23.312;2023-09-07T00:16:32;11.57;;;6.80;;
20036;SDS011;10179;42.640;23.312;2023-09-07T00:19:03;9.10;;;6.72;;
20036;SDS011;10179;42.640;23.312;2023-09-07T00:21:29;11.65;;;6.70;;
20036;SDS011;10179;42.640;23.312;2023-09-07T00:23:54;10.82;;;7.45;;
20036;SDS011;10179;42.640;23.312;2023-09-07T00:26:23;14.90;;;7.35;;
20036;SDS011;10179;42.640;23.312;2023-09-07T00:28:48;17.02;;;7.80;;
20036;SDS011;10179;42.640;23.312;2023-09-07T00:31:13;11.10;;;7.50;;
20036;SDS011;10179;42.640;23.312;2023-09-07T00:33:39;13.13;;;8.50;;
20036;SDS011;10179;42.640;23.312;2023-09-07T00:36:04;15.02;;;8.88;;
20036;SDS011;10179;42.640;23.312;2023-09-07T00:38:30;14.23;;;8.63;;
20036;SDS011;10179;42.640;23.312;2023-09-07T00:40:56;16.38;;;9.68;;
20036;SDS011;10179;42.640;23.312;2023-09-07T00:43:21;16.27;;;9.88;;
20036;SDS011;10179;42.640;23.312;2023-09-07T00:45:46;14.70;;;10.13;;
20036;SDS011;10179;42.640;23.312;2023-09-07T00:48:13;13.25;;;10.35;;
20036;SDS011;10179;42.640;23.312;2023-09-07T00:50:41;21.23;;;11.13;;
20036;SDS011;10179;42.640;23.312;2023-09-07T00:53:07;14.40;;;10.88;;
20036;SDS011;10179;42.640;23.312;2023-09-07T00:55:33;16.95;;;12.00;;
20036;SDS011;10179;42.640;23.312;2023-09-07T00:58:00;16.30;;;11.57;;
20036;SDS011;10179;42.640;23.312;2023-09-07T01:00:26;18.83;;;11.05;;
20036;SDS011;10179;42.640;23.312;2023-09-07T01:02:52;15.85;;;11.75;;
20036;SDS011;10179;42.640;23.312;2023-09-07T01:05:17;18.15;;;12.65;;
20036;SDS011;10179;42.640;23.312;2023-09-07T01:07:46;16.88;;;12.32;;
20036;SDS011;10179;42.640;23.312;2023-09-07T01:10:15;17.60;;;11.82;;
20036;SDS011;10179;42.640;23.312;2023-09-07T01:12:40;18.67;;;12.73;;
20036;SDS011;10179;42.640;23.312;2023-09-07T01:15:06;18.20;;;13.38;;
20036;SDS011;10179;42.640;23.312;2023-09-07T01:17:32;17.73;;;13.30;;
20036;SDS011;10179;42.640;23.312;2023-09-07T01:19:59;24.02;;;14.13;;
20036;SDS011;10179;42.640;23.312;2023-09-07T01:22:36;17.05;;;13.63;;
20036;SDS011;10179;42.640;23.312;2023-09-07T01:25:02;20.52;;;13.55;;
20036;SDS011;10179;42.640;23.312;2023-09-07T01:27:31;21.92;;;14.43;;
20036;SDS011;10179;42.640;23.312;2023-09-07T01:29:58;22.73;;;15.43;;
20036;SDS011;10179;42.640;23.312;2023-09-07T01:32:23;21.63;;;14.25;;
20036;SDS011;10179;42.640;23.312;2023-09-07T01:34:48;20.17;;;13.05;;
20036;SDS011;10179;42.640;23.312;2023-09-07T01:37:14;21.02;;;14.90;;
20036;SDS011;10179;42.640;23.312;2023-09-07T01:39:39;18.98;;;13.30;;
20036;SDS011;10179;42.640;23.312;2023-09-07T01:42:04;17.52;;;13.48;;
20036;SDS011;10179;42.640;23.312;2023-09-07T01:44:30;19.15;;;13.25;;
20036;SDS011;10179;42.640;23.312;2023-09-07T01:46:55;18.38;;;14.30;;
20036;SDS011;10179;42.640;23.312;2023-09-07T01:49:21;21.48;;;13.45;;
20036;SDS011;10179;42.640;23.312;2023-09-07T01:51:46;17.92;;;13.50;;
20036;SDS011;10179;42.640;23.312;2023-09-07T01:54:11;20.27;;;14.18;;
20036;SDS011;10179;42.640;23.312;2023-09-07T01:56:37;20.65;;;13.45;;
20036;SDS011;10179;42.640;23.312;2023-09-07T01:59:02;18.17;;;12.75;;
20036;SDS011;10179;42.640;23.312;2023-09-07T02:01:29;19.65;;;13.35;;
20036;SDS011;10179;42.640;23.312;2023-09-07T02:03:56;17.70;;;12.40;;
20036;SDS011;10179;42.640;23.312;2023-09-07T02:06:22;15.15;;;12.35;;
20036;SDS011;10179;42.640;23.312;2023-09-07T02:08:48;18.83;;;11.70;;
20036;SDS011;10179;42.640;23.312;2023-09-07T02:11:13;18.38;;;12.70;;
20036;SDS011;10179;42.640;23.312;2023-09-07T02:13:42;17.67;;;12.38;;
20036;SDS011;10179;42.640;23.312;2023-09-07T02:16:08;15.27;;;11.63;;
20036;SDS011;10179;42.640;23.312;2023-09-07T02:18:33;21.10;;;12.38;;
20036;SDS011;10179;42.640;23.312;2023-09-07T02:21:02;18.42;;;12.70;;
20036;SDS011;10179;42.640;23.312;2023-09-07T02:23:28;19.60;;;13.13;;
20036;SDS011;10179;42.640;23.312;2023-09-07T02:25:54;18.17;;;12.52;;
20036;SDS011;10179;42.640;23.312;2023-09-07T02:28:20;16.17;;;11.75;;
20036;SDS011;10179;42.640;23.312;2023-09-07T02:30:45;14.25;;;11.60;;
20036;SDS011;10179;42.640;23.312;2023-09-07T02:33:10;19.80;;;11.25;;
20036;SDS011;10179;42.640;23.312;2023-09-07T02:35:39;18.23;;;12.15;;
20036;SDS011;10179;42.640;23.312;2023-09-07T02:38:04;21.02;;;11.98;;
20036;SDS011;10179;42.640;23.312;2023-09-07T02:40:29;18.38;;;11.55;;
20036;SDS011;10179;42.640;23.312;2023-09-07T02:42:55;17.17;;;12.27;;
20036;SDS011;10179;42.640;23.312;2023-09-07T02:45:20;16.98;;;10.93;;
20036;SDS011;10179;42.640;23.312;2023-09-07T02:47:46;18.02;;;12.45;;
20036;SDS011;10179;42.640;23.312;2023-09-07T02:50:22;19.27;;;11.52;;
20036;SDS011;10179;42.640;23.312;2023-09-07T02:53:19;20.13;;;11.65;;
20036;SDS011;10179;42.640;23.312;2023-09-07T02:55:44;17.52;;;11.48;;
20036;SDS011;10179;42.640;23.312;2023-09-07T02:58:10;17.75;;;11.48;;
20036;SDS011;10179;42.640;23.312;2023-09-07T03:00:40;18.55;;;11.65;;
20036;SDS011;10179;42.640;23.312;2023-09-07T03:03:06;15.50;;;11.65;;
20036;SDS011;10179;42.640;23.312;2023-09-07T03:05:31;19.50;;;12.60;;
20036;SDS011;10179;42.640;23.312;2023-09-07T03:07:57;17.40;;;12.55;;
20036;SDS011;10179;42.640;23.312;2023-09-07T03:10:22;21.02;;;12.52;;
20036;SDS011;10179;42.640;23.312;2023-09-07T03:12:48;23.80;;;13.65;;
20036;SDS011;10179;42.640;23.312;2023-09-07T03:15:13;19.42;;;14.40;;
20036;SDS011;10179;42.640;23.312;2023-09-07T03:17:40;18.48;;;13.35;;
20036;SDS011;10179;42.640;23.312;2023-09-07T03:20:06;22.33;;;13.85;;
20036;SDS011;10179;42.640;23.312;2023-09-07T03:22:41;23.20;;;14.02;;
20036;SDS011;10179;42.640;23.312;2023-09-07T03:25:07;19.25;;;13.82;;
20036;SDS011;10179;42.640;23.312;2023-09-07T03:27:34;20.95;;;14.18;;
20036;SDS011;10179;42.640;23.312;2023-09-07T03:30:00;17.27;;;12.70;;
20036;SDS011;10179;42.640;23.312;2023-09-07T03:32:26;19.25;;;13.75;;
20036;SDS011;10179;42.640;23.312;2023-09-07T03:34:56;18.55;;;13.43;;
20036;SDS011;10179;42.640;23.312;2023-09-07T03:37:22;22.17;;;14.18;;
20036;SDS011;10179;42.640;23.312;2023-09-07T03:39:47;21.20;;;14.10;;
20036;SDS011;10179;42.640;23.312;2023-09-07T03:42:13;19.23;;;14.38;;
20036;SDS011;10179;42.640;23.312;2023-09-07T03:44:38;19.52;;;14.43;;
20036;SDS011;10179;42.640;23.312;2023-09-07T03:47:04;23.02;;;15.02;;
20036;SDS011;10179;42.640;23.312;2023-09-07T03:49:30;19.17;;;14.35;;
20036;SDS011;10179;42.640;23.312;2023-09-07T03:51:55;21.85;;;14.45;;
20036;SDS011;10179;42.640;23.312;2023-09-07T03:54:21;26.63;;;14.07;;
20036;SDS011;10179;42.640;23.312;2023-09-07T03:56:46;19.98;;;14.38;;
20036;SDS011;10179;42.640;23.312;2023-09-07T03:59:12;22.42;;;14.95;;
20036;SDS011;10179;42.640;23.312;2023-09-07T04:01:37;20.10;;;14.73;;
20036;SDS011;10179;42.640;23.312;2023-09-07T04:04:02;25.25;;;14.57;;
20036;SDS011;10179;42.640;23.312;2023-09-07T04:06:28;21.95;;;15.13;;
20036;SDS011;10179;42.640;23.312;2023-09-07T04:08:53;24.27;;;13.93;;
20036;SDS011;10179;42.640;23.312;2023-09-07T04:11:19;21.83;;;14.30;;
20036;SDS011;10179;42.640;23.312;2023-09-07T04:13:44;25.77;;;15.65;;
20036;SDS011;10179;42.640;23.312;2023-09-07T04:16:10;21.10;;;14.80;;
20036;SDS011;10179;42.640;23.312;2023-09-07T04:18:35;27.35;;;15.95;;
20036;SDS011;10179;42.640;23.312;2023-09-07T04:21:07;21.75;;;15.35;;
20036;SDS011;10179;42.640;23.312;2023-09-07T04:23:33;21.30;;;14.52;;
20036;SDS011;10179;42.640;23.312;2023-09-07T04:26:06;20.00;;;14.32;;
20036;SDS011;10179;42.640;23.312;2023-09-07T04:28:32;20.45;;;13.88;;
20036;SDS011;10179;42.640;23.312;2023-09-07T04:30:58;20.00;;;13.45;;
20036;SDS011;10179;42.640;23.312;2023-09-07T04:33:23;20.08;;;13.95;;
20036;SDS011;10179;42.640;23.312;2023-09-07T04:35:49;21.00;;;14.63;;
20036;SDS011;10179;42.640;23.312;2023-09-07T04:38:14;21.50;;;14.70;;
20036;SDS011;10179;42.640;23.312;2023-09-07T04:40:39;22.85;;;14.40;;
20036;SDS011;10179;42.640;23.312;2023-09-07T04:43:05;20.63;;;13.75;;
20036;SDS011;10179;42.640;23.312;2023-09-07T04:45:31;17.85;;;13.50;;
20036;SDS011;10179;42.640;23.312;2023-09-07T04:47:57;21.60;;;13.13;;
20036;SDS011;10179;42.640;23.312;2023-09-07T04:50:22;19.83;;;12.18;;
20036;SDS011;10179;42.640;23.312;2023-09-07T04:52:47;19.05;;;11.10;;
20036;SDS011;10179;42.640;23.312;2023-09-07T04:55:13;16.27;;;9.63;;
20036;SDS011;10179;42.640;23.312;2023-09-07T04:57:38;20.40;;;11.20;;
20036;SDS011;10179;42.640;23.312;2023-09-07T05:00:05;18.25;;;11.20;;
20036;SDS011;10179;42.640;23.312;2023-09-07T05:02:34;14.73;;;10.40;;
20036;SDS011;10179;42.640;23.312;2023-09-07T05:05:05;17.25;;;10.32;;
20036;SDS011;10179;42.640;23.312;2023-09-07T05:07:31;12.95;;;7.47;;
20036;SDS011;10179;42.640;23.312;2023-09-07T05:09:56;9.40;;;6.75;;
20036;SDS011;10179;42.640;23.312;2023-09-07T05:12:22;10.27;;;7.18;;
20036;SDS011;10179;42.640;23.312;2023-09-07T05:14:47;13.50;;;6.72;;
20036;SDS011;10179;42.640;23.312;2023-09-07T05:17:12;8.82;;;6.43;;
20036;SDS011;10179;42.640;23.312;2023-09-07T05:19:38;11.02;;;6.80;;
20036;SDS011;10179;42.640;23.312;2023-09-07T05:22:03;13.23;;;6.72;;
20036;SDS011;10179;42.640;23.312;2023-09-07T05:24:29;14.18;;;6.35;;
20036;SDS011;10179;42.640;23.312;2023-09-07T05:26:54;8.82;;;5.95;;
20036;SDS011;10179;42.640;23.312;2023-09-07T05:29:19;9.45;;;6.38;;
20036;SDS011;10179;42.640;23.312;2023-09-07T05:31:46;7.70;;;5.25;;
20036;SDS011;10179;42.640;23.312;2023-09-07T05:34:12;7.13;;;5.45;;
20036;SDS011;10179;42.640;23.312;2023-09-07T05:36:37;6.85;;;5.10;;
20036;SDS011;10179;42.640;23.312;2023-09-07T05:39:03;7.80;;;5.70;;
20036;SDS011;10179;42.640;23.312;2023-09-07T05:41:29;15.77;;;6.47;;
20036;SDS011;10179;42.640;23.312;2023-09-07T05:43:54;18.48;;;10.23;;
20036;SDS011;10179;42.640;23.312;2023-09-07T05:46:20;16.88;;;10.45;;
20036;SDS011;10179;42.640;23.312;2023-09-07T05:48:45;16.60;;;10.27;;
20036;SDS011;10179;42.640;23.312;2023-09-07T05:51:11;14.07;;;10.07;;
20036;SDS011;10179;42.640;23.312;2023-09-07T05:53:36;16.65;;;10.63;;
20036;SDS011;10179;42.640;23.312;2023-09-07T05:56:01;16.77;;;10.88;;
20036;SDS011;10179;42.640;23.312;2023-09-07T05:58:27;17.52;;;10.80;;
20036;SDS011;10179;42.640;23.312;2023-09-07T06:00:52;19.98;;;10.52;;
20036;SDS011;10179;42.640;23.312;2023-09-07T06:03:18;13.68;;;9.98;;
20036;SDS011;10179;42.640;23.312;2023-09-07T06:05:43;19.67;;;11.23;;
20036;SDS011;10179;42.640;23.312;2023-09-07T06:08:22;15.13;;;10.80;;
20036;SDS011;10179;42.640;23.312;2023-09-07T06:10:47;21.42;;;11.43;;
20036;SDS011;10179;42.640;23.312;2023-09-07T06:13:13;16.42;;;10.63;;
20036;SDS011;10179;42.640;23.312;2023-09-07T06:15:38;20.25;;;9.93;;
20036;SDS011;10179;42.640;23.312;2023-09-07T06:18:04;12.63;;;8.85;;
20036;SDS011;10179;42.640;23.312;2023-09-07T06:20:29;14.80;;;9.27;;
20036;SDS011;10179;42.640;23.312;2023-09-07T06:22:54;12.98;;;7.28;;
20036;SDS011;10179;42.640;23.312;2023-09-07T06:25:20;12.00;;;8.10;;
20036;SDS011;10179;42.640;23.312;2023-09-07T06:27:47;14.07;;;7.47;;
20036;SDS011;10179;42.640;23.312;2023-09-07T06:30:12;14.82;;;7.35;;
20036;SDS011;10179;42.640;23.312;2023-09-07T06:32:38;14.50;;;7.30;;
20036;SDS011;10179;42.640;23.312;2023-09-07T06:35:03;8.27;;;5.60;;
20036;SDS011;10179;42.640;23.312;2023-09-07T06:37:29;8.10;;;4.93;;
20036;SDS011;10179;42.640;23.312;2023-09-07T06:39:55;8.50;;;4.85;;
20036;SDS011;10179;42.640;23.312;2023-09-07T06:42:20;8.00;;;5.43;;
20036;SDS011;10179;42.640;23.312;2023-09-07T06:44:45;11.63;;;5.40;;
20036;SDS011;10179;42.640;23.312;2023-09-07T06:47:11;9.50;;;5.65;;
20036;SDS011;10179;42.640;23.312;2023-09-07T06:49:39;7.80;;;5.05;;
20036;SDS011;10179;42.640;23.312;2023-09-07T06:52:05;7.38;;;4.90;;
20036;SDS011;10179;42.640;23.312;2023-09-07T06:54:30;7.13;;;4.80;;
20036;SDS011;10179;42.640;23.312;2023-09-07T06:56:55;7.45;;;4.88;;
20036;SDS011;10179;42.640;23.312;2023-09-07T06:59:21;14.32;;;5.00;;
20036;SDS011;10179;42.640;23.312;2023-09-07T07:01:46;10.48;;;5.00;;
20036;SDS011;10179;42.640;23.312;2023-09-07T07:04:11;11.13;;;5.20;;
20036;SDS011;10179;42.640;23.312;2023-09-07T07:06:37;6.38;;;4.45;;
20036;SDS011;10179;42.640;23.312;2023-09-07T07:09:02;7.60;;;4.75;;
20036;SDS011;10179;42.640;23.312;2023-09-07T07:11:28;10.00;;;4.63;;
20036;SDS011;10179;42.640;23.312;2023-09-07T07:13:53;14.02;;;4.85;;
20036;SDS011;10179;42.640;23.312;2023-09-07T07:16:19;9.90;;;4.78;;
20036;SDS011;10179;42.640;23.312;2023-09-07T07:18:44;6.40;;;4.72;;
20036;SDS011;10179;42.640;23.312;2023-09-07T07:21:09;7.60;;;4.75;;
20036;SDS011;10179;42.640;23.312;2023-09-07T07:23:35;9.35;;;4.82;;
20036;SDS011;10179;42.640;23.312;2023-09-07T07:26:01;8.32;;;4.95;;
20036;SDS011;10179;42.640;23.312;2023-09-07T07:28:27;6.85;;;4.97;;
20036;SDS011;10179;42.640;23.312;2023-09-07T07:30:52;7.93;;;4.95;;
20036;SDS011;10179;42.640;23.312;2023-09-07T07:33:18;8.95;;;5.97;;
20036;SDS011;10179;42.640;23.312;2023-09-07T07:35:44;9.00;;;5.57;;
20036;SDS011;10179;42.640;23.312;2023-09-07T07:38:10;8.75;;;5.22;;
20036;SDS011;10179;42.640;23.312;2023-09-07T07:40:38;10.95;;;6.03;;
20036;SDS011;10179;42.640;23.312;2023-09-07T07:43:04;11.90;;;6.18;;
20036;SDS011;10179;42.640;23.312;2023-09-07T07:45:29;10.73;;;5.43;;
20036;SDS011;10179;42.640;23.312;2023-09-07T07:47:54;10.40;;;6.13;;
20036;SDS011;10179;42.640;23.312;2023-09-07T07:50:20;11.40;;;6.28;;
20036;SDS011;10179;42.640;23.312;2023-09-07T07:52:45;9.35;;;5.75;;
20036;SDS011;10179;42.640;23.312;2023-09-07T07:55:11;14.50;;;6.20;;
20036;SDS011;10179;42.640;23.312;2023-09-07T07:57:37;14.35;;;6.72;;
20036;SDS011;10179;42.640;23.312;2023-09-07T08:00:05;11.52;;;6.78;;
20036;SDS011;10179;42.640;23.312;2023-09-07T08:02:31;12.00;;;5.90;;
20036;SDS011;10179;42.640;23.312;2023-09-07T08:04:57;11.13;;;6.70;;
20036;SDS011;10179;42.640;23.312;2023-09-07T08:07:23;12.50;;;6.55;;
20036;SDS011;10179;42.640;23.312;2023-09-07T08:09:49;9.32;;;6.18;;
20036;SDS011;10179;42.640;23.312;2023-09-07T08:12:16;12.30;;;6.35;;
20036;SDS011;10179;42.640;23.312;2023-09-07T08:14:41;14.60;;;7.20;;
20036;SDS011;10179;42.640;23.312;2023-09-07T08:17:08;10.52;;;6.13;;
20036;SDS011;10179;42.640;23.312;2023-09-07T08:19:33;13.43;;;6.78;;
20036;SDS011;10179;42.640;23.312;2023-09-07T08:21:58;9.68;;;6.20;;
20036;SDS011;10179;42.640;23.312;2023-09-07T08:24:24;15.02;;;5.95;;
20036;SDS011;10179;42.640;23.312;2023-09-07T08:26:50;9.27;;;5.32;;
20036;SDS011;10179;42.640;23.312;2023-09-07T08:29:16;14.63;;;5.75;;
20036;SDS011;10179;42.640;23.312;2023-09-07T08:31:41;12.88;;;6.20;;
20036;SDS011;10179;42.640;23.312;2023-09-07T08:34:09;10.50;;;6.85;;
20036;SDS011;10179;42.640;23.312;2023-09-07T08:36:36;10.43;;;6.07;;
20036;SDS011;10179;42.640;23.312;2023-09-07T08:39:02;7.82;;;5.43;;
20036;SDS011;10179;42.640;23.312;2023-09-07T08:41:31;9.52;;;4.80;;
20036;SDS011;10179;42.640;23.312;2023-09-07T08:43:58;11.13;;;5.65;;
20036;SDS011;10179;42.640;23.312;2023-09-07T08:46:25;8.85;;;5.47;;
20036;SDS011;10179;42.640;23.312;2023-09-07T08:48:51;9.27;;;4.70;;
20036;SDS011;10179;42.640;23.312;2023-09-07T08:51:19;9.20;;;5.00;;
20036;SDS011;10179;42.640;23.312;2023-09-07T08:53:45;9.13;;;5.25;;
20036;SDS011;10179;42.640;23.312;2023-09-07T08:56:14;10.23;;;5.07;;
20036;SDS011;10179;42.640;23.312;2023-09-07T08:58:41;12.65;;;5.38;;
20036;SDS011;10179;42.640;23.312;2023-09-07T09:01:06;9.50;;;4.95;;
20036;SDS011;10179;42.640;23.312;2023-09-07T09:03:33;8.70;;;4.80;;
20036;SDS011;10179;42.640;23.312;2023-09-07T09:06:00;7.00;;;4.85;;
20036;SDS011;10179;42.640;23.312;2023-09-07T09:08:26;10.27;;;5.38;;
20036;SDS011;10179;42.640;23.312;2023-09-07T09:11:03;11.75;;;4.90;;
20036;SDS011;10179;42.640;23.312;2023-09-07T09:13:32;14.60;;;5.07;;
20036;SDS011;10179;42.640;23.312;2023-09-07T09:16:01;11.55;;;5.00;;
20036;SDS011;10179;42.640;23.312;2023-09-07T09:18:27;8.10;;;5.57;;
20036;SDS011;10179;42.640;23.312;2023-09-07T09:20:54;7.45;;;5.45;;
20036;SDS011;10179;42.640;23.312;2023-09-07T09:23:20;9.02;;;5.35;;
20036;SDS011;10179;42.640;23.312;2023-09-07T09:25:47;8.40;;;4.90;;
20036;SDS011;10179;42.640;23.312;2023-09-07T09:28:13;14.80;;;4.63;;
20036;SDS011;10179;42.640;23.312;2023-09-07T09:30:39;9.77;;;4.57;;
20036;SDS011;10179;42.640;23.312;2023-09-07T09:33:08;11.07;;;4.28;;
20036;SDS011;10179;42.640;23.312;2023-09-07T09:35:35;6.47;;;4.80;;
20036;SDS011;10179;42.640;23.312;2023-09-07T09:38:01;11.35;;;4.50;;
20036;SDS011;10179;42.640;23.312;2023-09-07T09:40:31;8.27;;;4.00;;
20036;SDS011;10179;42.640;23.312;2023-09-07T09:42:58;8.55;;;4.55;;
20036;SDS011;10179;42.640;23.312;2023-09-07T09:45:24;5.97;;;3.97;;
20036;SDS011;10179;42.640;23.312;2023-09-07T09:47:52;6.60;;;3.88;;
20036;SDS011;10179;42.640;23.312;2023-09-07T09:50:21;8.65;;;4.20;;
20036;SDS011;10179;42.640;23.312;2023-09-07T09:52:47;7.50;;;3.97;;
20036;SDS011;10179;42.640;23.312;2023-09-07T09:55:13;8.57;;;4.22;;
20036;SDS011;10179;42.640;23.312;2023-09-07T09:57:40;5.00;;;3.80;;
20036;SDS011;10179;42.640;23.312;2023-09-07T10:00:06;5.22;;;4.30;;
20036;SDS011;10179;42.640;23.312;2023-09-07T10:02:50;6.15;;;4.05;;
20036;SDS011;10179;42.640;23.312;2023-09-07T10:05:20;11.63;;;4.15;;
20036;SDS011;10179;42.640;23.312;2023-09-07T10:07:49;18.45;;;5.07;;
20036;SDS011;10179;42.640;23.312;2023-09-07T10:10:15;7.68;;;4.15;;
20036;SDS011;10179;42.640;23.312;2023-09-07T10:12:43;7.10;;;4.57;;
20036;SDS011;10179;42.640;23.312;2023-09-07T10:20:34;9.90;;;4.32;;
20036;SDS011;10179;42.640;23.312;2023-09-07T10:23:21;8.43;;;4.15;;
20036;SDS011;10179;42.640;23.312;2023-09-07T10:25:51;6.75;;;3.97;;
20036;SDS011;10179;42.640;23.312;2023-09-07T10:28:19;8.13;;;3.97;;
20036;SDS011;10179;42.640;23.312;2023-09-07T10:30:57;6.38;;;3.70;;
20036;SDS011;10179;42.640;23.312;2023-09-07T10:33:42;6.03;;;3.50;;
20036;SDS011;10179;42.640;23.312;2023-09-07T10:36:08;6.10;;;3.80;;
20036;SDS011;10179;42.640;23.312;2023-09-07T10:38:45;5.97;;;3.63;;
20036;SDS011;10179;42.640;23.312;2023-09-07T10:41:10;7.75;;;4.15;;
20036;SDS011;10179;42.640;23.312;2023-09-07T10:43:36;7.55;;;3.53;;
20036;SDS011;10179;42.640;23.312;2023-09-07T10:46:12;8.80;;;3.60;;
20036;SDS011;10179;42.640;23.312;2023-09-07T10:48:38;6.22;;;3.42;;
20036;SDS011;10179;42.640;23.312;2023-09-07T10:51:03;9.70;;;4.05;;
20036;SDS011;10179;42.640;23.312;2023-09-07T10:53:29;7.18;;;4.38;;
20036;SDS011;10179;42.640;23.312;2023-09-07T10:56:02;7.75;;;4.05;;
20036;SDS011;10179;42.640;23.312;2023-09-07T10:58:35;8.70;;;4.43;;
20036;SDS011;10179;42.640;23.312;2023-09-07T11:01:06;6.03;;;3.80;;
20036;SDS011;10179;42.640;23.312;2023-09-07T11:03:32;8.43;;;4.10;;
20036;SDS011;10179;42.640;23.312;2023-09-07T11:08:29;6.68;;;3.88;;
20036;SDS011;10179;42.640;23.312;2023-09-07T11:10:55;7.22;;;4.40;;
20036;SDS011;10179;42.640;23.312;2023-09-07T11:13:21;8.00;;;4.88;;
20036;SDS011;10179;42.640;23.312;2023-09-07T11:15:48;11.90;;;4.97;;
20036;SDS011;10179;42.640;23.312;2023-09-07T11:18:18;9.05;;;4.50;;
20036;SDS011;10179;42.640;23.312;2023-09-07T11:20:46;6.55;;;4.28;;
20036;SDS011;10179;42.640;23.312;2023-09-07T11:23:12;9.63;;;4.10;;
20036;SDS011;10179;42.640;23.312;2023-09-07T11:25:38;8.65;;;4.35;;
20036;SDS011;10179;42.640;23.312;2023-09-07T11:28:07;6.60;;;4.07;;
20036;SDS011;10179;42.640;23.312;2023-09-07T11:30:33;10.15;;;4.53;;
20036;SDS011;10179;42.640;23.312;2023-09-07T11:33:06;8.20;;;4.80;;
20036;SDS011;10179;42.640;23.312;2023-09-07T11:35:32;6.28;;;4.43;;
20036;SDS011;10179;42.640;23.312;2023-09-07T11:37:59;7.78;;;4.43;;
20036;SDS011;10179;42.640;23.312;2023-09-07T11:40:25;8.20;;;4.75;;
20036;SDS011;10179;42.640;23.312;2023-09-07T11:42:51;4.85;;;3.78;;
20036;SDS011;10179;42.640;23.312;2023-09-07T11:45:16;6.57;;;4.18;;
20036;SDS011;10179;42.640;23.312;2023-09-07T11:47:43;9.60;;;4.30;;
20036;SDS011;10179;42.640;23.312;2023-09-07T11:50:08;11.88;;;4.47;;
20036;SDS011;10179;42.640;23.312;2023-09-07T11:52:34;9.82;;;4.07;;
20036;SDS011;10179;42.640;23.312;2023-09-07T11:54:59;9.52;;;3.85;;
20036;SDS011;10179;42.640;23.312;2023-09-07T11:57:25;8.38;;;4.07;;
20036;SDS011;10179;42.640;23.312;2023-09-07T11:59:50;5.45;;;3.95;;
20036;SDS011;10179;42.640;23.312;2023-09-07T12:02:16;5.85;;;3.60;;
20036;SDS011;10179;42.640;23.312;2023-09-07T12:04:42;6.32;;;4.10;;
20036;SDS011;10179;42.640;23.312;2023-09-07T12:07:08;8.35;;;3.53;;
20036;SDS011;10179;42.640;23.312;2023-09-07T12:09:33;7.57;;;3.85;;
20036;SDS011;10179;42.640;23.312;2023-09-07T12:11:59;7.20;;;3.97;;
20036;SDS011;10179;42.640;23.312;2023-09-07T12:14:24;6.30;;;3.35;;
20036;SDS011;10179;42.640;23.312;2023-09-07T12:16:50;8.45;;;4.20;;
20036;SDS011;10179;42.640;23.312;2023-09-07T12:19:15;6.07;;;3.70;;
20036;SDS011;10179;42.640;23.312;2023-09-07T12:21:40;10.05;;;3.83;;
20036;SDS011;10179;42.640;23.312;2023-09-07T12:24:07;7.90;;;3.92;;
20036;SDS011;10179;42.640;23.312;2023-09-07T12:26:32;6.30;;;3.55;;
20036;SDS011;10179;42.640;23.312;2023-09-07T12:28:57;6.40;;;3.38;;
20036;SDS011;10179;42.640;23.312;2023-09-07T12:31:23;5.55;;;3.70;;
20036;SDS011;10179;42.640;23.312;2023-09-07T12:33:48;12.90;;;3.83;;
20036;SDS011;10179;42.640;23.312;2023-09-07T12:36:14;17.48;;;3.72;;
20036;SDS011;10179;42.640;23.312;2023-09-07T12:38:39;6.03;;;3.42;;
20036;SDS011;10179;42.640;23.312;2023-09-07T12:41:05;17.83;;;3.92;;
20036;SDS011;10179;42.640;23.312;2023-09-07T12:43:30;8.70;;;3.53;;
20036;SDS011;10179;42.640;23.312;2023-09-07T12:45:56;5.15;;;3.53;;
20036;SDS011;10179;42.640;23.312;2023-09-07T12:48:21;7.18;;;3.58;;
20036;SDS011;10179;42.640;23.312;2023-09-07T12:50:46;7.70;;;3.40;;
20036;SDS011;10179;42.640;23.312;2023-09-07T12:53:12;8.07;;;3.50;;
20036;SDS011;10179;42.640;23.312;2023-09-07T12:55:37;5.80;;;2.88;;
20036;SDS011;10179;42.640;23.312;2023-09-07T12:58:03;7.80;;;3.45;;
20036;SDS011;10179;42.640;23.312;2023-09-07T13:00:28;7.10;;;3.17;;
20036;SDS011;10179;42.640;23.312;2023-09-07T13:02:54;7.43;;;3.30;;
20036;SDS011;10179;42.640;23.312;2023-09-07T13:05:20;5.15;;;3.15;;
20036;SDS011;10179;42.640;23.312;2023-09-07T13:07:46;3.97;;;3.03;;
20036;SDS011;10179;42.640;23.312;2023-09-07T13:10:12;7.65;;;3.28;;
20036;SDS011;10179;42.640;23.312;2023-09-07T13:12:37;7.82;;;3.65;;
20036;SDS011;10179;42.640;23.312;2023-09-07T13:15:03;5.95;;;3.00;;
20036;SDS011;10179;42.640;23.312;2023-09-07T13:17:29;6.65;;;3.30;;
20036;SDS011;10179;42.640;23.312;2023-09-07T13:19:55;8.32;;;3.25;;
20036;SDS011;10179;42.640;23.312;2023-09-07T13:22:20;5.75;;;3.22;;
20036;SDS011;10179;42.640;23.312;2023-09-07T13:24:46;6.95;;;3.42;;
20036;SDS011;10179;42.640;23.312;2023-09-07T13:27:11;10.85;;;3.08;;
20036;SDS011;10179;42.640;23.312;2023-09-07T13:29:36;7.18;;;4.07;;
20036;SDS011;10179;42.640;23.312;2023-09-07T13:32:02;9.50;;;3.03;;
20036;SDS011;10179;42.640;23.312;2023-09-07T13:34:28;6.72;;;3.30;;
20036;SDS011;10179;42.640;23.312;2023-09-07T13:36:54;6.60;;;3.40;;
20036;SDS011;10179;42.640;23.312;2023-09-07T13:39:20;5.75;;;2.97;;
20036;SDS011;10179;42.640;23.312;2023-09-07T13:41:46;14.63;;;2.97;;
20036;SDS011;10179;42.640;23.312;2023-09-07T13:44:11;8.93;;;3.05;;
20036;SDS011;10179;42.640;23.312;2023-09-07T13:46:38;16.60;;;4.05;;
20036;SDS011;10179;42.640;23.312;2023-09-07T13:49:04;7.85;;;3.38;;
20036;SDS011;10179;42.640;23.312;2023-09-07T13:51:29;7.47;;;3.30;;
20036;SDS011;10179;42.640;23.312;2023-09-07T13:54:00;5.28;;;3.10;;
20036;SDS011;10179;42.640;23.312;2023-09-07T13:56:25;6.85;;;3.33;;
20036;SDS011;10179;42.640;23.312;2023-09-07T13:58:51;9.38;;;2.95;;
20036;SDS011;10179;42.640;23.312;2023-09-07T14:01:16;5.10;;;3.20;;
20036;SDS011;10179;42.640;23.312;2023-09-07T14:03:42;4.47;;;2.90;;
20036;SDS011;10179;42.640;23.312;2023-09-07T14:06:07;7.60;;;2.92;;
20036;SDS011;10179;42.640;23.312;2023-09-07T14:08:32;4.72;;;3.00;;
20036;SDS011;10179;42.640;23.312;2023-09-07T14:10:59;7.50;;;3.38;;
20036;SDS011;10179;42.640;23.312;2023-09-07T14:13:25;9.98;;;3.35;;
20036;SDS011;10179;42.640;23.312;2023-09-07T14:15:51;7.70;;;3.67;;
20036;SDS011;10179;42.640;23.312;2023-09-07T14:18:16;6.95;;;3.70;;
20036;SDS011;10179;42.640;23.312;2023-09-07T14:20:41;4.72;;;3.15;;
20036;SDS011;10179;42.640;23.312;2023-09-07T14:23:08;7.15;;;3.60;;
20036;SDS011;10179;42.640;23.312;2023-09-07T14:25:34;4.65;;;3.05;;
20036;SDS011;10179;42.640;23.312;2023-09-07T14:27:59;11.70;;;3.75;;